Accueil
METAR-TAF:

METAR-TAF

Aéroports :

Base aérienne 133 Nancy-Ochey

Nancy, France

latitude: 48-35N, longitude: 005-58E, altitude: 336 m

Observation

Le bulletin a été fait il y a 27 minutes, à 07:30 UTC
Vent 2 kt de nord-est
Température -4°C
Humidité 93%
Pression 1039 hPa
Visibilité: 6000 m

METAR: LFSO 210730Z AUTO 04002KT 6000 NSC M04/M05 Q1039 TEMPO 4000 BR

Heure: 08:57 (07:57 UTC)

Prévision

Le bulletin a été fait il y a 1 heure et 19 minutes, à 06:38 UTC
Prévision valable du 21 à 06 UTC au 22 à 03 UTC
Vent 3 kt de direction variable
Visibilité 10 km ou plus
pas de nuages en-dessous de 1500 mètres et pas de cumulonimbus.
Temporairement
du 21 à 06 UTC au 21 à 09 UTC
Visibilité: 4000 m
brume

TAF: LFSO 210638Z 2106/2203 VRB03KT CAVOK TEMPO 2106/2109 4000 BR NSC

Observations et prévisions météorologiques de plus de 4000 aéroports (messages METAR et TAF).

Les stations disponibles sont représentées par des disques jaunes et rouges sur la carte.

Passer la souris dessus pour voir le nom de la station.

Cliquer dessus pour voir les observations et prévisions météorologiques.

Pour changer de carte: cliquez sur les boutons verts avec une croix noire pour zoomer, sur le bouton vert avec un tiret pour effectuer un zoom arrière, ou sur les flèches vertes pour les cartes adjacentes.


METAR-TAF: